createdAt,value
2022-09-21T00:00:09.740Z,99.99
2022-09-21T00:01:09.898Z,99.99
2022-09-21T00:02:09.770Z,99.99
2022-09-21T00:03:09.725Z,99.99
2022-09-21T00:04:09.799Z,99.99
2022-09-21T00:05:09.737Z,99.99
2022-09-21T00:06:09.724Z,99.99
2022-09-21T00:07:09.669Z,99.99
2022-09-21T00:08:09.653Z,99.99
2022-09-21T00:09:09.646Z,99.99
2022-09-21T00:10:09.643Z,99.99
2022-09-21T00:11:09.655Z,99.99
2022-09-21T00:12:09.605Z,99.99
2022-09-21T00:13:09.608Z,99.99
2022-09-21T00:14:09.585Z,99.99
2022-09-21T00:15:09.571Z,99.99
2022-09-21T00:16:09.629Z,99.99
2022-09-21T00:17:09.549Z,99.99
2022-09-21T00:18:09.559Z,99.99
2022-09-21T00:19:09.541Z,99.99
2022-09-21T00:20:09.524Z,99.99
2022-09-21T00:21:09.548Z,99.99
2022-09-21T00:22:09.515Z,99.99
2022-09-21T00:23:09.489Z,99.99
2022-09-21T00:24:09.490Z,99.99
2022-09-21T00:25:09.478Z,99.99
2022-09-21T00:26:09.480Z,99.99
2022-09-21T00:27:09.443Z,99.99
2022-09-21T00:28:09.444Z,99.99
2022-09-21T00:29:09.419Z,99.99
2022-09-21T00:30:09.406Z,99.99
2022-09-21T00:31:09.410Z,99.99
2022-09-21T00:32:09.403Z,99.99
2022-09-21T00:33:09.384Z,99.99
2022-09-21T00:34:09.545Z,99.99
2022-09-21T00:35:09.356Z,99.99
2022-09-21T00:36:09.350Z,99.99
2022-09-21T00:37:09.336Z,99.99
2022-09-21T00:38:09.340Z,99.99
2022-09-21T00:39:09.336Z,99.99
2022-09-21T00:40:09.347Z,99.99
2022-09-21T00:41:09.322Z,99.99
2022-09-21T00:42:09.285Z,99.99
2022-09-21T00:43:09.272Z,99.99
2022-09-21T00:44:09.267Z,99.99
2022-09-21T00:45:09.246Z,99.99
2022-09-21T00:46:09.330Z,99.99
2022-09-21T00:47:09.232Z,99.99
2022-09-21T00:48:09.213Z,99.99
2022-09-21T00:49:09.258Z,99.99
2022-09-21T00:50:09.222Z,99.99
2022-09-21T00:51:09.193Z,99.99
2022-09-21T00:52:09.171Z,99.99
2022-09-21T00:53:09.159Z,99.99
2022-09-21T00:54:09.160Z,99.99
2022-09-21T00:55:09.141Z,99.99
2022-09-21T00:56:09.165Z,99.99
2022-09-21T00:57:09.149Z,99.99
2022-09-21T00:58:09.107Z,99.99
2022-09-21T00:59:09.095Z,99.99
2022-09-21T01:00:09.084Z,99.99
2022-09-21T01:01:09.139Z,99.99
2022-09-21T01:02:09.101Z,99.99
2022-09-21T01:03:09.071Z,99.99
2022-09-21T01:04:09.086Z,99.99
2022-09-21T01:05:09.057Z,99.99
2022-09-21T01:06:09.048Z,99.99
2022-09-21T01:07:09.017Z,99.99
2022-09-21T01:08:09.020Z,99.99
2022-09-21T01:09:08.994Z,99.99
2022-09-21T01:10:08.984Z,99.99
2022-09-21T01:11:08.984Z,99.99
2022-09-21T01:12:08.989Z,99.99
2022-09-21T01:13:08.946Z,99.99
2022-09-21T01:14:08.929Z,99.99
2022-09-21T01:15:08.925Z,99.99
2022-09-21T01:16:08.966Z,99.99
2022-09-21T01:17:08.900Z,99.99
2022-09-21T01:18:08.887Z,99.99
2022-09-21T01:19:08.935Z,99.99
2022-09-21T01:20:08.866Z,99.99
2022-09-21T01:21:08.874Z,99.99
2022-09-21T01:22:08.861Z,99.99
2022-09-21T01:23:08.831Z,99.99
2022-09-21T01:24:08.827Z,99.99
2022-09-21T01:25:08.833Z,99.99
2022-09-21T01:26:08.843Z,99.99
2022-09-21T01:27:08.797Z,99.99
2022-09-21T01:28:08.788Z,99.99
2022-09-21T01:29:08.782Z,99.99
2022-09-21T01:30:08.765Z,99.99
2022-09-21T01:31:08.807Z,99.99
2022-09-21T01:32:08.778Z,99.99
2022-09-21T01:33:08.723Z,99.99
2022-09-21T01:34:08.747Z,99.99
2022-09-21T01:35:08.713Z,99.99
2022-09-21T01:36:08.712Z,99.99
2022-09-21T01:37:08.696Z,99.99
2022-09-21T01:38:08.692Z,99.99
2022-09-21T01:39:08.661Z,99.99
2022-09-21T01:40:08.672Z,99.99
2022-09-21T01:41:08.679Z,99.99
2022-09-21T01:42:08.630Z,99.99
2022-09-21T01:43:08.625Z,99.99
2022-09-21T01:44:08.606Z,99.99
2022-09-21T01:45:08.601Z,99.99
2022-09-21T01:46:08.601Z,99.99
2022-09-21T01:47:08.587Z,99.99
2022-09-21T01:48:08.564Z,99.99
2022-09-21T01:49:08.621Z,99.99
2022-09-21T01:50:08.550Z,99.99
2022-09-21T01:51:08.546Z,99.99
2022-09-21T01:52:08.522Z,99.99
2022-09-21T01:53:08.505Z,99.99
2022-09-21T01:54:08.525Z,99.99
2022-09-21T01:55:08.487Z,99.99
2022-09-21T01:56:08.484Z,99.99
2022-09-21T01:57:08.462Z,99.99
2022-09-21T01:58:08.455Z,99.99
2022-09-21T01:59:08.443Z,99.99
2022-09-21T02:00:08.436Z,99.99
2022-09-21T02:01:08.497Z,99.99
2022-09-21T02:02:08.456Z,99.99
2022-09-21T02:03:08.401Z,99.99
2022-09-21T02:04:08.392Z,99.99
2022-09-21T02:05:08.380Z,99.99
2022-09-21T02:06:08.392Z,99.99
2022-09-21T02:07:08.395Z,99.99
2022-09-21T02:08:08.350Z,99.99
2022-09-21T02:09:08.331Z,99.99
2022-09-21T02:10:08.363Z,99.99
2022-09-21T02:11:08.329Z,99.99
2022-09-21T02:12:08.319Z,99.99
2022-09-21T02:13:08.301Z,99.99
2022-09-21T02:14:08.281Z,99.99
2022-09-21T02:15:08.271Z,99.99
2022-09-21T02:16:08.376Z,99.99
2022-09-21T02:17:08.254Z,99.99
2022-09-21T02:18:08.242Z,99.99
2022-09-21T02:19:08.288Z,99.99
2022-09-21T02:20:08.214Z,99.99
2022-09-21T02:21:08.216Z,99.99
2022-09-21T02:22:08.196Z,99.99
2022-09-21T02:23:08.190Z,99.99
2022-09-21T02:24:08.175Z,99.99
2022-09-21T02:25:08.154Z,99.99
2022-09-21T02:26:08.191Z,99.99
2022-09-21T02:27:08.138Z,99.99
2022-09-21T02:28:08.126Z,99.99
2022-09-21T02:29:08.112Z,99.99
2022-09-21T02:30:08.113Z,99.99
2022-09-21T02:31:08.221Z,99.99
2022-09-21T02:32:08.089Z,99.99
2022-09-21T02:33:08.078Z,99.99
2022-09-21T02:34:08.114Z,99.99
2022-09-21T02:35:08.051Z,99.99
2022-09-21T02:36:08.065Z,99.99
2022-09-21T02:37:08.023Z,99.99
2022-09-21T02:38:08.015Z,99.99
2022-09-21T02:39:08.035Z,99.99
2022-09-21T02:40:08.073Z,99.99
2022-09-21T02:41:07.993Z,99.99
2022-09-21T02:42:07.990Z,99.99
2022-09-21T02:43:07.959Z,99.99
2022-09-21T02:44:07.963Z,99.99
2022-09-21T02:45:07.938Z,99.99
2022-09-21T02:46:07.995Z,99.99
2022-09-21T02:47:07.913Z,99.99
2022-09-21T02:48:07.909Z,99.99
2022-09-21T02:49:07.939Z,99.99
2022-09-21T02:50:07.885Z,99.99
2022-09-21T02:51:07.911Z,99.99
2022-09-21T02:52:07.857Z,99.99
2022-09-21T02:53:07.856Z,99.99
2022-09-21T02:54:07.832Z,99.99
2022-09-21T02:55:07.826Z,99.99
2022-09-21T02:56:07.890Z,99.99
2022-09-21T02:57:07.804Z,99.99
2022-09-21T02:58:07.812Z,99.99
2022-09-21T02:59:07.806Z,99.99
2022-09-21T03:00:07.768Z,99.99
2022-09-21T03:01:07.805Z,99.99
2022-09-21T03:02:07.757Z,99.99
2022-09-21T03:03:07.745Z,99.99
2022-09-21T03:04:07.787Z,99.99
2022-09-21T03:05:07.799Z,99.99
2022-09-21T03:06:07.723Z,99.99
2022-09-21T03:07:07.746Z,99.99
2022-09-21T03:08:07.686Z,99.99
2022-09-21T03:09:07.677Z,99.99
2022-09-21T03:10:07.660Z,99.99
2022-09-21T03:11:07.663Z,99.99
2022-09-21T03:12:07.636Z,99.99
2022-09-21T03:13:07.648Z,99.99
2022-09-21T03:14:07.640Z,99.99
2022-09-21T03:15:07.614Z,99.99
2022-09-21T03:16:07.640Z,99.99
2022-09-21T03:17:07.605Z,99.99
2022-09-21T03:18:07.584Z,99.99
2022-09-21T03:19:07.603Z,99.99
2022-09-21T03:20:07.548Z,99.99
2022-09-21T03:21:07.566Z,99.99
2022-09-21T03:22:07.534Z,99.99
2022-09-21T03:23:07.524Z,99.99
2022-09-21T03:24:07.556Z,99.99
2022-09-21T03:25:07.494Z,99.99
2022-09-21T03:26:07.505Z,99.99
2022-09-21T03:27:07.500Z,99.99
2022-09-21T03:28:07.501Z,99.99
2022-09-21T03:29:07.457Z,99.99
2022-09-21T03:30:07.455Z,99.99
2022-09-21T03:31:07.507Z,99.99
2022-09-21T03:32:07.431Z,99.99
2022-09-21T03:33:07.406Z,99.99
2022-09-21T03:34:07.424Z,99.99
2022-09-21T03:35:07.411Z,99.99
2022-09-21T03:36:07.460Z,99.99
2022-09-21T03:37:07.359Z,99.99
2022-09-21T03:38:07.385Z,99.99
2022-09-21T03:39:07.341Z,99.99
2022-09-21T03:40:07.350Z,99.99
2022-09-21T03:41:07.378Z,99.99
2022-09-21T03:42:07.337Z,99.99
2022-09-21T03:43:07.292Z,99.99
2022-09-21T03:44:07.284Z,99.99
2022-09-21T03:45:07.276Z,99.99
2022-09-21T03:46:07.542Z,99.99
2022-09-21T03:47:07.251Z,99.99
2022-09-21T03:48:07.237Z,99.99
2022-09-21T03:49:07.228Z,99.99
2022-09-21T03:50:09.989Z,99.99
2022-09-21T03:51:07.302Z,99.99
2022-09-21T03:52:07.198Z,99.99
2022-09-21T03:53:07.180Z,99.99
2022-09-21T03:54:07.178Z,99.99
2022-09-21T03:55:07.162Z,99.99
2022-09-21T03:56:07.180Z,99.99
2022-09-21T03:57:07.134Z,99.99
2022-09-21T03:58:07.167Z,99.99
2022-09-21T03:59:10.563Z,99.99
2022-09-21T04:00:08.138Z,99.99
2022-09-21T04:01:07.174Z,99.99
2022-09-21T04:02:07.230Z,99.99
2022-09-21T04:03:07.075Z,99.99
2022-09-21T04:04:07.063Z,99.99
2022-09-21T04:05:07.082Z,99.99
2022-09-21T04:06:07.037Z,99.99
2022-09-21T04:07:07.071Z,99.99
2022-09-21T04:08:07.021Z,99.99
2022-09-21T04:09:07.032Z,99.99
2022-09-21T04:10:06.997Z,99.99
2022-09-21T04:11:06.982Z,99.99
2022-09-21T04:12:06.985Z,99.99
2022-09-21T04:13:06.972Z,99.99
2022-09-21T04:14:06.952Z,99.99
2022-09-21T04:15:06.947Z,99.99
2022-09-21T04:16:06.961Z,99.99
2022-09-21T04:17:06.935Z,99.99
2022-09-21T04:18:06.932Z,99.99
2022-09-21T04:19:07.005Z,99.99
2022-09-21T04:20:06.879Z,99.99
2022-09-21T04:21:06.919Z,99.99
2022-09-21T04:22:06.905Z,99.99
2022-09-21T04:23:06.898Z,99.99
2022-09-21T04:24:06.838Z,99.99
2022-09-21T04:25:06.863Z,99.99
2022-09-21T04:26:06.815Z,99.99
2022-09-21T04:27:06.848Z,99.99
2022-09-21T04:28:06.785Z,99.99
2022-09-21T04:29:06.981Z,99.99
2022-09-21T04:30:06.822Z,99.99
2022-09-21T04:31:06.803Z,99.99
2022-09-21T04:32:06.792Z,99.99
2022-09-21T04:33:06.776Z,99.99
2022-09-21T04:34:06.762Z,99.99
2022-09-21T04:35:06.724Z,99.99
2022-09-21T04:36:06.705Z,99.99
2022-09-21T04:37:06.705Z,99.99
2022-09-21T04:40:11.918Z,99.99
2022-09-21T04:41:11.856Z,99.99
2022-09-21T04:42:11.837Z,99.99
2022-09-21T04:43:11.814Z,99.99
2022-09-21T04:44:11.801Z,99.99
2022-09-21T04:45:11.790Z,99.99
2022-09-21T04:46:11.823Z,99.99
2022-09-21T04:47:11.783Z,99.99
2022-09-21T04:48:11.760Z,99.99
2022-09-21T04:49:11.768Z,99.99
2022-09-21T04:50:11.737Z,99.99
2022-09-21T04:51:11.726Z,99.99
2022-09-21T04:52:14.747Z,99.99
2022-09-21T04:53:12.711Z,99.99
2022-09-21T04:54:11.696Z,99.99
2022-09-21T04:55:18.714Z,99.99
2022-09-21T04:56:11.673Z,99.99
2022-09-21T04:57:11.671Z,99.99
2022-09-21T04:58:11.646Z,99.99
2022-09-21T04:59:11.646Z,99.99
2022-09-21T05:00:11.636Z,99.99
2022-09-21T05:01:11.702Z,99.99
2022-09-21T05:02:11.620Z,99.99
2022-09-21T05:03:11.769Z,99.99
2022-09-21T05:04:11.677Z,99.99
2022-09-21T05:05:11.667Z,99.99
2022-09-21T05:06:11.569Z,99.99
2022-09-21T05:07:11.567Z,99.99
2022-09-21T05:08:11.601Z,99.99
2022-09-21T05:09:11.542Z,99.99
2022-09-21T05:10:11.519Z,99.99
2022-09-21T05:11:11.522Z,99.99
2022-09-21T05:12:11.511Z,99.99
2022-09-21T05:13:11.484Z,99.99
2022-09-21T05:14:11.537Z,99.99
2022-09-21T05:15:11.476Z,99.99
2022-09-21T05:16:11.454Z,99.99
2022-09-21T05:17:11.458Z,99.99
2022-09-21T05:18:11.438Z,99.99
2022-09-21T05:19:11.469Z,99.99
2022-09-21T05:20:11.416Z,99.99
2022-09-21T05:21:11.421Z,99.99
2022-09-21T05:22:11.413Z,99.99
2022-09-21T05:23:14.854Z,99.99
2022-09-21T05:24:12.372Z,99.99
2022-09-21T05:25:11.367Z,99.99
2022-09-21T05:26:11.353Z,99.99
2022-09-21T05:27:11.343Z,99.99
2022-09-21T05:28:11.323Z,99.99
2022-09-21T05:29:11.339Z,99.99
2022-09-21T05:30:11.353Z,99.99
2022-09-21T05:31:17.579Z,99.99
2022-09-21T05:32:12.306Z,99.99
2022-09-21T05:33:11.304Z,99.99
2022-09-21T05:34:11.263Z,99.99
2022-09-21T05:35:11.273Z,99.99
2022-09-21T05:36:11.256Z,99.99
2022-09-21T05:37:11.298Z,99.99
2022-09-21T05:38:11.218Z,99.99
2022-09-21T05:39:11.212Z,99.99
2022-09-21T05:40:11.238Z,99.99
2022-09-21T05:41:11.195Z,99.99
2022-09-21T05:42:11.205Z,99.99
2022-09-21T05:43:11.178Z,99.99
2022-09-21T05:44:11.159Z,99.99
2022-09-21T05:45:11.145Z,99.99
2022-09-21T05:46:11.199Z,99.99
2022-09-21T05:47:11.248Z,99.99
2022-09-21T05:48:11.108Z,99.99
2022-09-21T05:49:11.098Z,99.99
2022-09-21T05:50:11.116Z,99.99
2022-09-21T05:51:11.084Z,99.99
2022-09-21T05:52:11.099Z,99.99
2022-09-21T05:53:11.079Z,99.99
2022-09-21T05:54:11.074Z,99.99
2022-09-21T05:55:11.038Z,99.99
2022-09-21T05:56:11.050Z,99.99
2022-09-21T05:57:11.030Z,99.99
2022-09-21T05:58:11.029Z,99.99
2022-09-21T05:59:10.997Z,99.99
2022-09-21T06:00:11.046Z,99.99
2022-09-21T06:01:11.006Z,99.99
2022-09-21T06:02:11.107Z,99.99
2022-09-21T06:03:15.504Z,99.99
2022-09-21T06:04:11.968Z,99.99
2022-09-21T06:05:10.922Z,99.99
2022-09-21T06:06:10.918Z,99.99
2022-09-21T06:07:10.929Z,99.99
2022-09-21T06:08:10.923Z,99.99
2022-09-21T06:09:10.943Z,99.99
2022-09-21T06:10:10.885Z,99.99
2022-09-21T06:11:10.864Z,99.99
2022-09-21T06:12:10.889Z,99.99
2022-09-21T06:13:10.856Z,99.99
2022-09-21T06:14:10.861Z,99.99
2022-09-21T06:15:10.844Z,99.99
2022-09-21T06:16:10.821Z,99.99
2022-09-21T06:17:10.849Z,99.99
2022-09-21T06:18:15.535Z,99.99
2022-09-21T06:19:11.778Z,99.99
2022-09-21T06:20:10.769Z,99.99
2022-09-21T06:21:10.773Z,99.99
2022-09-21T06:22:10.759Z,99.99
2022-09-21T06:23:10.781Z,99.99
2022-09-21T06:24:10.733Z,99.99
2022-09-21T06:25:10.732Z,99.99
2022-09-21T06:26:10.704Z,99.99
2022-09-21T06:27:10.731Z,99.99
2022-09-21T06:28:10.698Z,99.99
2022-09-21T06:29:10.703Z,99.99
2022-09-21T06:30:10.670Z,99.99
2022-09-21T06:31:10.764Z,99.99
2022-09-21T06:32:10.657Z,99.99
2022-09-21T06:33:10.632Z,99.99
2022-09-21T06:34:10.635Z,99.99
2022-09-21T06:35:10.627Z,99.99
2022-09-21T06:36:10.606Z,99.99
2022-09-21T06:37:10.642Z,99.99
2022-09-21T06:38:10.615Z,99.99
2022-09-21T06:39:10.573Z,99.99
2022-09-21T06:40:10.615Z,99.99
2022-09-21T06:41:10.612Z,99.99
2022-09-21T06:42:10.632Z,99.99
2022-09-21T06:43:10.529Z,99.99
2022-09-21T06:44:10.509Z,99.99
2022-09-21T06:45:10.525Z,99.99
2022-09-21T06:46:10.519Z,99.99
2022-09-21T06:47:10.520Z,99.99
2022-09-21T06:48:10.477Z,99.99
2022-09-21T06:49:10.460Z,99.99
2022-09-21T06:50:10.456Z,99.99
2022-09-21T06:51:10.443Z,99.99
2022-09-21T06:52:10.443Z,99.99
2022-09-21T06:53:10.418Z,99.99
2022-09-21T06:54:10.439Z,99.99
2022-09-21T06:55:10.393Z,99.99
2022-09-21T06:56:10.406Z,99.99
2022-09-21T06:57:10.457Z,99.99
2022-09-21T06:58:10.427Z,99.99
2022-09-21T06:59:10.346Z,99.99
2022-09-21T07:00:10.350Z,99.99
2022-09-21T07:01:10.501Z,99.99
2022-09-21T07:02:10.615Z,99.99
2022-09-21T07:03:10.317Z,99.99
2022-09-21T07:04:10.338Z,99.99
2022-09-21T07:05:10.289Z,99.99
2022-09-21T07:06:10.262Z,99.99
2022-09-21T07:07:10.265Z,99.99
2022-09-21T07:10:05.007Z,99.99
2022-09-21T07:10:15.839Z,99.99
2022-09-21T07:11:11.215Z,99.99
2022-09-21T07:12:10.215Z,99.99
2022-09-21T07:13:10.209Z,99.99
2022-09-21T07:14:10.183Z,99.99
2022-09-21T07:15:10.185Z,99.99
2022-09-21T07:16:10.210Z,99.99
2022-09-21T07:17:15.611Z,99.99
2022-09-21T07:18:11.142Z,99.99
2022-09-21T07:19:11.312Z,99.99
2022-09-21T07:20:10.115Z,99.99
2022-09-21T07:21:10.148Z,99.99
2022-09-21T07:22:10.109Z,99.99
2022-09-21T07:23:10.129Z,99.99
2022-09-21T07:24:12.532Z,99.99
2022-09-21T07:25:10.058Z,99.99
2022-09-21T07:26:10.054Z,99.99
2022-09-21T07:27:10.070Z,99.99
2022-09-21T07:28:10.036Z,99.99
2022-09-21T07:29:10.038Z,99.99
2022-09-21T07:30:10.095Z,99.99
2022-09-21T07:31:10.042Z,99.99
2022-09-21T07:32:09.991Z,99.99
2022-09-21T07:33:09.984Z,99.99
2022-09-21T07:34:09.980Z,99.99
2022-09-21T07:35:09.944Z,99.99
2022-09-21T07:36:10.083Z,99.99
2022-09-21T07:37:09.965Z,99.99
2022-09-21T07:38:09.938Z,99.99
2022-09-21T07:39:09.910Z,99.99
2022-09-21T07:40:09.934Z,99.99
2022-09-21T07:41:09.883Z,99.99
2022-09-21T07:42:09.869Z,99.99
2022-09-21T07:43:09.877Z,99.99
2022-09-21T07:44:09.897Z,99.99
2022-09-21T07:45:09.865Z,99.99
2022-09-21T07:46:09.943Z,99.99
2022-09-21T07:47:09.824Z,99.99
2022-09-21T07:48:09.815Z,99.99
2022-09-21T07:49:09.828Z,99.99
2022-09-21T07:50:09.812Z,99.99
2022-09-21T07:51:09.784Z,99.99
2022-09-21T07:52:11.245Z,99.99
2022-09-21T07:53:09.760Z,99.99
2022-09-21T07:54:09.788Z,99.99
2022-09-21T07:55:09.733Z,99.99
2022-09-21T07:56:09.781Z,99.99
2022-09-21T07:57:09.740Z,99.99
2022-09-21T07:58:09.729Z,99.99
2022-09-21T07:59:09.687Z,99.99
2022-09-21T08:00:09.702Z,99.99
2022-09-21T08:01:09.766Z,99.99
2022-09-21T08:02:09.754Z,99.99
2022-09-21T08:03:09.682Z,99.99
2022-09-21T08:04:09.729Z,99.99
2022-09-21T08:05:09.625Z,99.99
2022-09-21T08:06:09.636Z,99.99
2022-09-21T08:07:09.602Z,99.99
2022-09-21T08:08:09.594Z,99.99
2022-09-21T08:09:09.592Z,99.99
2022-09-21T08:10:09.572Z,99.99
2022-09-21T08:11:09.569Z,99.99
2022-09-21T08:12:09.578Z,99.99
2022-09-21T08:13:09.546Z,99.99
2022-09-21T08:14:09.591Z,99.99
2022-09-21T08:15:25.009Z,99.99
2022-09-21T08:16:10.540Z,99.99
2022-09-21T08:17:09.527Z,99.99
2022-09-21T08:18:09.514Z,99.99
2022-09-21T08:19:09.473Z,99.99
2022-09-21T08:20:09.459Z,99.99
2022-09-21T08:21:11.260Z,99.99
2022-09-21T08:22:09.452Z,99.99
2022-09-21T08:23:09.428Z,99.99
2022-09-21T08:24:09.415Z,99.99
2022-09-21T08:25:09.423Z,99.99
2022-09-21T08:26:09.397Z,99.99
2022-09-21T08:27:09.663Z,99.99
2022-09-21T08:28:10.119Z,99.99
2022-09-21T08:29:09.363Z,99.99
2022-09-21T08:30:09.359Z,99.99
2022-09-21T08:31:09.368Z,99.99
2022-09-21T08:32:09.379Z,99.99
2022-09-21T08:33:09.343Z,99.99
2022-09-21T08:34:09.307Z,99.99
2022-09-21T08:35:09.335Z,99.99
2022-09-21T08:36:09.287Z,99.99
2022-09-21T08:37:09.292Z,99.99
2022-09-21T08:38:09.275Z,99.99
2022-09-21T08:39:09.249Z,99.99
2022-09-21T08:40:09.289Z,99.99
2022-09-21T08:41:09.241Z,99.99
2022-09-21T08:42:09.224Z,99.99
2022-09-21T08:43:09.237Z,99.99
2022-09-21T08:44:09.221Z,99.99
2022-09-21T08:45:09.197Z,99.99
2022-09-21T08:46:09.174Z,99.99
2022-09-21T08:47:09.177Z,99.99
2022-09-21T08:48:09.161Z,99.99
2022-09-21T08:49:09.188Z,99.99
2022-09-21T08:50:09.145Z,99.99
2022-09-21T08:51:09.133Z,99.99
2022-09-21T08:52:09.133Z,99.99
2022-09-21T08:53:09.148Z,99.99
2022-09-21T08:54:09.096Z,99.99
2022-09-21T08:55:09.096Z,99.99
2022-09-21T08:56:09.076Z,99.99
2022-09-21T08:57:09.060Z,99.99
2022-09-21T08:58:09.048Z,99.99
2022-09-21T08:59:09.042Z,99.99
2022-09-21T09:00:09.038Z,99.99
2022-09-21T09:01:09.143Z,99.99
2022-09-21T09:02:09.062Z,99.99
2022-09-21T09:03:08.995Z,99.99
2022-09-21T09:04:09.150Z,99.99
2022-09-21T09:05:08.991Z,99.99
2022-09-21T09:06:08.965Z,99.99
2022-09-21T09:07:08.975Z,99.99
2022-09-21T09:08:08.942Z,99.99
2022-09-21T09:09:09.074Z,99.99
2022-09-21T09:10:08.928Z,99.99
2022-09-21T09:11:08.904Z,99.99
2022-09-21T09:12:11.262Z,99.99
2022-09-21T09:13:08.912Z,99.99
2022-09-21T09:14:08.871Z,99.99
2022-09-21T09:15:08.861Z,99.99
2022-09-21T09:16:08.893Z,99.99
2022-09-21T09:17:08.843Z,99.99
2022-09-21T09:18:08.875Z,99.99
2022-09-21T09:19:08.820Z,99.99
2022-09-21T09:20:08.807Z,99.99
2022-09-21T09:21:08.836Z,99.99
2022-09-21T09:22:08.789Z,99.99
2022-09-21T09:23:08.821Z,99.99
2022-09-21T09:24:08.832Z,99.99
2022-09-21T09:25:08.764Z,99.99
2022-09-21T09:26:08.738Z,99.99
2022-09-21T09:27:08.731Z,99.99
2022-09-21T09:28:08.741Z,99.99
2022-09-21T09:29:08.708Z,99.99
2022-09-21T09:30:08.715Z,99.99
2022-09-21T09:31:08.744Z,99.99
2022-09-21T09:32:08.672Z,99.99
2022-09-21T09:33:08.669Z,99.99
2022-09-21T09:34:08.651Z,99.99
2022-09-21T09:35:08.650Z,99.99
2022-09-21T09:36:08.662Z,99.99
2022-09-21T09:37:08.640Z,99.99
2022-09-21T09:38:08.621Z,99.99
2022-09-21T09:39:08.631Z,99.99
2022-09-21T09:40:08.655Z,99.99
2022-09-21T09:41:08.595Z,99.99
2022-09-21T09:42:08.609Z,99.99
2022-09-21T09:43:08.559Z,99.99
2022-09-21T09:44:08.554Z,99.99
2022-09-21T09:45:08.538Z,99.99
2022-09-21T09:46:11.469Z,99.99
2022-09-21T09:47:08.523Z,99.99
2022-09-21T09:48:08.519Z,99.99
2022-09-21T09:49:08.502Z,99.99
2022-09-21T09:50:08.479Z,99.99
2022-09-21T09:51:08.490Z,99.99
2022-09-21T09:52:08.467Z,99.99
2022-09-21T09:53:08.468Z,99.99
2022-09-21T09:54:10.405Z,99.99
2022-09-21T09:55:08.468Z,99.99
2022-09-21T09:56:08.410Z,99.99
2022-09-21T09:57:08.431Z,99.99
2022-09-21T09:58:08.429Z,99.99
2022-09-21T09:59:08.381Z,99.99
2022-09-21T10:00:08.364Z,99.99
2022-09-21T10:01:08.361Z,99.99
2022-09-21T10:02:08.432Z,99.99
2022-09-21T10:03:08.338Z,99.99
2022-09-21T10:04:08.531Z,99.99
2022-09-21T10:05:08.376Z,99.99
2022-09-21T10:06:08.305Z,99.99
2022-09-21T10:07:08.309Z,99.99
2022-09-21T10:08:08.286Z,99.99
2022-09-21T10:09:08.347Z,99.99
2022-09-21T10:10:08.263Z,99.99
2022-09-21T10:11:08.249Z,99.99
2022-09-21T10:12:10.504Z,99.99
2022-09-21T10:13:08.232Z,99.99
2022-09-21T10:14:08.213Z,99.99
2022-09-21T10:15:08.214Z,99.99
2022-09-21T10:16:08.279Z,99.99
2022-09-21T10:17:08.199Z,99.99
2022-09-21T10:18:08.167Z,99.99
2022-09-21T10:19:08.226Z,99.99
2022-09-21T10:20:08.159Z,99.99
2022-09-21T10:21:08.148Z,99.99
2022-09-21T10:22:08.137Z,99.99
2022-09-21T10:23:08.127Z,99.99
2022-09-21T10:24:08.108Z,99.99
2022-09-21T10:25:08.153Z,99.99
2022-09-21T10:26:08.085Z,99.99
2022-09-21T10:27:08.075Z,99.99
2022-09-21T10:28:09.960Z,99.99
2022-09-21T10:29:08.055Z,99.99
2022-09-21T10:30:08.042Z,99.99
2022-09-21T10:31:08.139Z,99.99
2022-09-21T10:32:12.355Z,99.99
2022-09-21T10:33:09.010Z,99.99
2022-09-21T10:34:08.018Z,99.99
2022-09-21T10:35:07.986Z,99.99
2022-09-21T10:36:07.975Z,99.99
2022-09-21T10:37:07.970Z,99.99
2022-09-21T10:38:07.951Z,99.99
2022-09-21T10:39:07.999Z,99.99
2022-09-21T10:40:07.980Z,99.99
2022-09-21T10:41:07.941Z,99.99
2022-09-21T10:42:07.910Z,99.99
2022-09-21T10:43:07.897Z,99.99
2022-09-21T10:44:07.896Z,99.99
2022-09-21T10:45:07.891Z,99.99
2022-09-21T10:46:07.937Z,99.99
2022-09-21T10:47:07.858Z,99.99
2022-09-21T10:48:07.845Z,99.99
2022-09-21T10:49:07.839Z,99.99
2022-09-21T10:50:07.859Z,99.99
2022-09-21T10:51:07.814Z,99.99
2022-09-21T10:52:07.803Z,99.99
2022-09-21T10:53:07.792Z,99.99
2022-09-21T10:54:07.780Z,99.99
2022-09-21T10:55:07.786Z,99.99
2022-09-21T10:56:16.456Z,99.99
2022-09-21T10:57:08.769Z,99.99
2022-09-21T10:58:07.735Z,99.99
2022-09-21T10:59:07.733Z,99.99
2022-09-21T11:00:07.747Z,99.99
2022-09-21T11:01:07.751Z,99.99
2022-09-21T11:02:07.756Z,99.99
2022-09-21T11:03:07.742Z,99.99
2022-09-21T11:04:07.724Z,99.99
2022-09-21T11:05:07.666Z,99.99
2022-09-21T11:06:07.661Z,99.99
2022-09-21T11:07:07.642Z,99.99
2022-09-21T11:08:07.641Z,99.99
2022-09-21T11:09:14.701Z,99.99
2022-09-21T11:10:07.605Z,99.99
2022-09-21T11:11:07.598Z,99.99
2022-09-21T11:12:07.584Z,99.99
2022-09-21T11:13:07.608Z,99.99
2022-09-21T11:14:07.587Z,99.99
2022-09-21T11:15:07.551Z,99.99
2022-09-21T11:16:07.591Z,99.99
2022-09-21T11:17:07.542Z,99.99
2022-09-21T11:18:07.524Z,99.99
2022-09-21T11:19:07.507Z,99.99
2022-09-21T11:20:07.510Z,99.99
2022-09-21T11:21:07.488Z,99.99
2022-09-21T11:22:07.476Z,99.99
2022-09-21T11:23:07.464Z,99.99
2022-09-21T11:24:07.455Z,99.99
2022-09-21T11:25:07.502Z,99.99
2022-09-21T11:26:07.433Z,99.99
2022-09-21T11:27:07.418Z,99.99
2022-09-21T11:28:07.432Z,99.99
2022-09-21T11:29:07.416Z,99.99
2022-09-21T11:30:07.394Z,99.99
2022-09-21T11:31:07.447Z,99.99
2022-09-21T11:32:07.369Z,99.99
2022-09-21T11:33:07.356Z,99.99
2022-09-21T11:34:07.345Z,99.99
2022-09-21T11:35:07.367Z,99.99
2022-09-21T11:36:07.322Z,99.99
2022-09-21T11:37:07.330Z,99.99
2022-09-21T11:38:07.305Z,99.99
2022-09-21T11:39:07.296Z,99.99
2022-09-21T11:40:07.397Z,99.99
2022-09-21T11:41:07.277Z,99.99
2022-09-21T11:42:07.271Z,99.99
2022-09-21T11:43:07.258Z,99.99
2022-09-21T11:44:10.101Z,99.99
2022-09-21T11:45:07.295Z,99.99
2022-09-21T11:46:07.280Z,99.99
2022-09-21T11:47:07.219Z,99.99
2022-09-21T11:48:07.192Z,99.99
2022-09-21T11:49:07.234Z,99.99
2022-09-21T11:50:29.085Z,99.99
2022-09-21T11:51:08.161Z,99.99
2022-09-21T11:52:07.163Z,99.99
2022-09-21T11:53:07.137Z,99.99
2022-09-21T11:54:07.130Z,99.99
2022-09-21T11:55:07.120Z,99.99
2022-09-21T11:56:07.113Z,99.99
2022-09-21T11:57:07.105Z,99.99
2022-09-21T11:58:07.086Z,99.99
2022-09-21T11:59:07.383Z,99.99
2022-09-21T12:00:07.076Z,99.99
2022-09-21T12:01:07.069Z,99.99
2022-09-21T12:02:07.233Z,99.99
2022-09-21T12:03:07.030Z,99.99
2022-09-21T12:04:07.023Z,99.99
2022-09-21T12:05:07.016Z,99.99
2022-09-21T12:06:06.999Z,99.99
2022-09-21T12:07:06.995Z,99.99
2022-09-21T12:08:06.995Z,99.99
2022-09-21T12:09:06.970Z,99.99
2022-09-21T12:10:10.326Z,99.99
2022-09-21T12:11:06.947Z,99.99
2022-09-21T12:12:06.937Z,99.99
2022-09-21T12:13:06.937Z,99.99
2022-09-21T12:14:06.946Z,99.99
2022-09-21T12:15:06.973Z,99.99
2022-09-21T12:16:06.895Z,99.99
2022-09-21T12:17:06.958Z,99.99
2022-09-21T12:18:06.892Z,99.58
2022-09-21T12:19:06.969Z,99.19
2022-09-21T12:20:06.854Z,98.65
2022-09-21T12:21:06.844Z,98.39
2022-09-21T12:22:06.833Z,98.10
2022-09-21T12:23:06.824Z,97.94
2022-09-21T12:24:06.812Z,98.54
2022-09-21T12:25:06.806Z,98.89
2022-09-21T12:26:06.788Z,98.89
2022-09-21T12:27:06.776Z,99.33
2022-09-21T12:28:06.766Z,98.94
2022-09-21T12:29:06.764Z,99.14
2022-09-21T12:30:06.741Z,99.68
2022-09-21T12:31:06.774Z,99.99
2022-09-21T12:32:06.721Z,99.68
2022-09-21T12:33:06.741Z,99.68
2022-09-21T12:34:06.763Z,99.79
2022-09-21T12:35:06.680Z,99.38
2022-09-21T12:36:06.687Z,99.79
2022-09-21T12:37:06.663Z,99.99
2022-09-21T12:38:06.654Z,99.93
2022-09-21T12:39:06.681Z,99.93
2022-09-21T12:40:06.701Z,99.99
2022-09-21T12:41:06.623Z,99.99
2022-09-21T12:42:06.628Z,99.99
2022-09-21T12:43:08.137Z,99.99
2022-09-21T12:44:06.586Z,99.99
2022-09-21T12:45:06.575Z,99.99
2022-09-21T12:46:06.638Z,99.99
2022-09-21T12:47:06.587Z,99.99
2022-09-21T12:48:06.551Z,99.99
2022-09-21T12:49:06.551Z,99.99
2022-09-21T12:50:06.521Z,99.99
2022-09-21T12:51:06.512Z,99.99
2022-09-21T12:52:06.525Z,99.99
2022-09-21T12:53:06.498Z,99.99
2022-09-21T12:54:06.689Z,99.99
2022-09-21T12:55:06.487Z,99.99